GIB016 LEAS-LEMH
Flight info
| Callsign | GIB016 |
|---|---|
| Flight time | 1h 39m |
| Altitude | 24000 |
| Route | LEVNO Q210 JOCRE/N0446F330 DCT SNR/N0448F340 M190 BLV M601 BCN N725 DIPES N727 SARGO |
| Aircraft | A320/M-SDE3FGHIRWY/LB1 |
Departure
| Time | 2026-05-05 19:01 |
|---|---|
| Airport | Asturias Airport (LEAS) |
Arrival
| Time | 2026-05-05 20:40 |
|---|---|
| Airport | Menorca Airport (LEMH) |
| Time | Latitude | Longitude | Altitude | Speed | Heading |
|---|---|---|---|---|---|
| 2026-05-05 18:58 | 43.55959 | -6.02476 | 422 ft | 0 kts | 108° |
| 2026-05-05 18:58 | 43.55958 | -6.02470 | 420 ft | 4 kts | 108° |
| 2026-05-05 18:59 | 43.55953 | -6.02350 | 418 ft | 9 kts | 71° |
| 2026-05-05 18:59 | 43.55976 | -6.02282 | 422 ft | 7 kts | 63° |
| 2026-05-05 18:59 | 43.55999 | -6.02222 | 424 ft | 6 kts | 57° |
| 2026-05-05 18:59 | 43.56036 | -6.02201 | 424 ft | 6 kts | 1° |
| 2026-05-05 19:00 | 43.56064 | -6.02238 | 423 ft | 7 kts | 302° |
| 2026-05-05 19:00 | 43.56108 | -6.02413 | 423 ft | 46 kts | 288° |
| 2026-05-05 19:00 | 43.56283 | -6.03151 | 417 ft | 113 kts | 288° |
| 2026-05-05 19:00 | 43.56563 | -6.04398 | 630 ft | 145 kts | 285° |
| 2026-05-05 19:01 | 43.56849 | -6.05739 | 1300 ft | 144 kts | 288° |
| 2026-05-05 19:01 | 43.57168 | -6.07067 | 1818 ft | 156 kts | 288° |
| 2026-05-05 19:01 | 43.57535 | -6.08585 | 2101 ft | 178 kts | 288° |
| 2026-05-05 19:01 | 43.57951 | -6.10311 | 2372 ft | 200 kts | 288° |
| 2026-05-05 19:02 | 43.58404 | -6.12194 | 2980 ft | 209 kts | 289° |
| 2026-05-05 19:02 | 43.58863 | -6.14105 | 3858 ft | 210 kts | 289° |
| 2026-05-05 19:02 | 43.59406 | -6.15994 | 4643 ft | 213 kts | 306° |
| 2026-05-05 19:02 | 43.60577 | -6.17162 | 5371 ft | 217 kts | 346° |
| 2026-05-05 19:03 | 43.62093 | -6.17068 | 6142 ft | 222 kts | 12° |
| 2026-05-05 19:03 | 43.63585 | -6.16460 | 6931 ft | 225 kts | 17° |
| 2026-05-05 19:03 | 43.65069 | -6.15729 | 7695 ft | 227 kts | 18° |
| 2026-05-05 19:03 | 43.66566 | -6.14973 | 8469 ft | 230 kts | 17° |
| 2026-05-05 19:04 | 43.68086 | -6.14222 | 9252 ft | 233 kts | 17° |
| 2026-05-05 19:04 | 43.69625 | -6.13483 | 10045 ft | 235 kts | 17° |
| 2026-05-05 19:04 | 43.71082 | -6.12417 | 10715 ft | 242 kts | 39° |
| 2026-05-05 19:04 | 43.72122 | -6.10569 | 11286 ft | 257 kts | 63° |
| 2026-05-05 19:05 | 43.72514 | -6.08045 | 11542 ft | 284 kts | 88° |
| 2026-05-05 19:05 | 43.72515 | -6.05197 | 11770 ft | 308 kts | 88° |
| 2026-05-05 19:05 | 43.72511 | -6.02117 | 11978 ft | 331 kts | 88° |
| 2026-05-05 19:05 | 43.72511 | -5.98865 | 12289 ft | 349 kts | 88° |
| 2026-05-05 19:06 | 43.72517 | -5.95465 | 12928 ft | 355 kts | 88° |
| 2026-05-05 19:06 | 43.72525 | -5.92027 | 13634 ft | 359 kts | 88° |
| 2026-05-05 19:06 | 43.72537 | -5.88544 | 14307 ft | 363 kts | 88° |
| 2026-05-05 19:06 | 43.72550 | -5.85086 | 14970 ft | 365 kts | 88° |
| 2026-05-05 19:07 | 43.72561 | -5.81560 | 15642 ft | 367 kts | 88° |
| 2026-05-05 19:07 | 43.72572 | -5.78009 | 16307 ft | 369 kts | 88° |
| 2026-05-05 19:07 | 43.72583 | -5.74453 | 16973 ft | 371 kts | 87° |
| 2026-05-05 19:07 | 43.72594 | -5.70871 | 17630 ft | 373 kts | 87° |
| 2026-05-05 19:08 | 43.72603 | -5.67263 | 18245 ft | 377 kts | 87° |
| 2026-05-05 19:08 | 43.72610 | -5.63667 | 18793 ft | 380 kts | 87° |
| 2026-05-05 19:08 | 43.72616 | -5.59977 | 19355 ft | 383 kts | 88° |
| 2026-05-05 19:08 | 43.72620 | -5.56284 | 19916 ft | 385 kts | 88° |
| 2026-05-05 19:09 | 43.72622 | -5.52561 | 20478 ft | 388 kts | 88° |
| 2026-05-05 19:09 | 43.72623 | -5.48864 | 21025 ft | 391 kts | 88° |
| 2026-05-05 19:09 | 43.72622 | -5.45088 | 21578 ft | 393 kts | 88° |
| 2026-05-05 19:09 | 43.72622 | -5.41282 | 22126 ft | 396 kts | 88° |
| 2026-05-05 19:10 | 43.72597 | -5.37456 | 22652 ft | 399 kts | 91° |
| 2026-05-05 19:10 | 43.72206 | -5.33618 | 23161 ft | 405 kts | 101° |
| 2026-05-05 19:10 | 43.71504 | -5.29826 | 23632 ft | 409 kts | 102° |
| 2026-05-05 19:10 | 43.70804 | -5.26053 | 24015 ft | 412 kts | 103° |
| 2026-05-05 19:11 | 43.70092 | -5.22199 | 24421 ft | 415 kts | 102° |
| 2026-05-05 19:11 | 43.69378 | -5.18318 | 24798 ft | 418 kts | 103° |
| 2026-05-05 19:11 | 43.68662 | -5.14412 | 25145 ft | 421 kts | 103° |
| 2026-05-05 19:11 | 43.67938 | -5.10470 | 25486 ft | 425 kts | 103° |
| 2026-05-05 19:12 | 43.67202 | -5.06487 | 25829 ft | 428 kts | 103° |
| 2026-05-05 19:12 | 43.66460 | -5.02489 | 26158 ft | 431 kts | 103° |
| 2026-05-05 19:12 | 43.65718 | -4.98508 | 26488 ft | 434 kts | 103° |
| 2026-05-05 19:12 | 43.64962 | -4.94445 | 26823 ft | 437 kts | 103° |
| 2026-05-05 19:13 | 43.64206 | -4.90360 | 27135 ft | 441 kts | 103° |
| 2026-05-05 19:13 | 43.63439 | -4.86241 | 27427 ft | 445 kts | 103° |
| 2026-05-05 19:13 | 43.62657 | -4.82087 | 27745 ft | 447 kts | 103° |
| 2026-05-05 19:13 | 43.61870 | -4.77913 | 28079 ft | 450 kts | 104° |
| 2026-05-05 19:14 | 43.61089 | -4.73778 | 28391 ft | 453 kts | 104° |
| 2026-05-05 19:14 | 43.60292 | -4.69557 | 28682 ft | 455 kts | 104° |
| 2026-05-05 19:14 | 43.59490 | -4.65307 | 28986 ft | 458 kts | 104° |
| 2026-05-05 19:14 | 43.58682 | -4.61034 | 29284 ft | 460 kts | 104° |
| 2026-05-05 19:15 | 43.57871 | -4.56750 | 29577 ft | 463 kts | 104° |
| 2026-05-05 19:15 | 43.57054 | -4.52445 | 29847 ft | 465 kts | 104° |
| 2026-05-05 19:15 | 43.56229 | -4.48114 | 30111 ft | 468 kts | 104° |
| 2026-05-05 19:15 | 43.55409 | -4.43811 | 30322 ft | 470 kts | 104° |
| 2026-05-05 19:16 | 43.54569 | -4.39441 | 30515 ft | 472 kts | 104° |
| 2026-05-05 19:16 | 43.53715 | -4.35026 | 30653 ft | 477 kts | 105° |
| 2026-05-05 19:16 | 43.52858 | -4.30586 | 30796 ft | 480 kts | 104° |
| 2026-05-05 19:16 | 43.51998 | -4.26129 | 30985 ft | 482 kts | 104° |
| 2026-05-05 19:17 | 43.51144 | -4.21711 | 31184 ft | 483 kts | 105° |
| 2026-05-05 19:17 | 43.50274 | -4.17229 | 31459 ft | 483 kts | 105° |
| 2026-05-05 19:17 | 43.49402 | -4.12754 | 31734 ft | 483 kts | 105° |
| 2026-05-05 19:17 | 43.48528 | -4.08274 | 32001 ft | 483 kts | 105° |
| 2026-05-05 19:18 | 43.47652 | -4.03792 | 32264 ft | 483 kts | 105° |
| 2026-05-05 19:18 | 43.46785 | -3.99381 | 32529 ft | 483 kts | 105° |
| 2026-05-05 19:18 | 43.45902 | -3.94911 | 32798 ft | 483 kts | 105° |
| 2026-05-05 19:18 | 43.45020 | -3.90442 | 33073 ft | 483 kts | 104° |
| 2026-05-05 19:19 | 43.44210 | -3.85945 | 33345 ft | 483 kts | 102° |
| 2026-05-05 19:19 | 43.43509 | -3.81421 | 33627 ft | 483 kts | 101° |
| 2026-05-05 19:19 | 43.42879 | -3.76882 | 33920 ft | 482 kts | 100° |
| 2026-05-05 19:19 | 43.42275 | -3.72336 | 34022 ft | 480 kts | 100° |
| 2026-05-05 19:20 | 43.41053 | -3.63411 | 34034 ft | 475 kts | 101° |
| 2026-05-05 19:20 | 43.39740 | -3.54493 | 34033 ft | 475 kts | 102° |
| 2026-05-05 19:21 | 43.38386 | -3.45608 | 34034 ft | 474 kts | 102° |
| 2026-05-05 19:21 | 43.37031 | -3.36708 | 34033 ft | 476 kts | 102° |
| 2026-05-05 19:22 | 43.35688 | -3.27844 | 34027 ft | 476 kts | 102° |
| 2026-05-05 19:22 | 43.34367 | -3.18915 | 34021 ft | 476 kts | 102° |
| 2026-05-05 19:23 | 43.33049 | -3.09986 | 34023 ft | 476 kts | 102° |
| 2026-05-05 19:23 | 43.31718 | -3.01117 | 34019 ft | 476 kts | 102° |
| 2026-05-05 19:24 | 43.29970 | -2.92358 | 34021 ft | 475 kts | 114° |
| 2026-05-05 19:24 | 43.26740 | -2.84557 | 34017 ft | 473 kts | 124° |
| 2026-05-05 19:25 | 43.23210 | -2.76920 | 34014 ft | 473 kts | 124° |
| 2026-05-05 19:25 | 43.19683 | -2.69288 | 34002 ft | 473 kts | 124° |
| 2026-05-05 19:26 | 43.16168 | -2.61698 | 34012 ft | 473 kts | 124° |
| 2026-05-05 19:26 | 43.12637 | -2.54103 | 34015 ft | 473 kts | 124° |
| 2026-05-05 19:27 | 43.09092 | -2.46504 | 34016 ft | 472 kts | 124° |
| 2026-05-05 19:27 | 43.05566 | -2.38966 | 34020 ft | 472 kts | 125° |
| 2026-05-05 19:28 | 43.02025 | -2.31402 | 34023 ft | 472 kts | 124° |
| 2026-05-05 19:28 | 42.98475 | -2.23859 | 33989 ft | 472 kts | 126° |
| 2026-05-05 19:29 | 42.94957 | -2.16336 | 33991 ft | 473 kts | 125° |
| 2026-05-05 19:29 | 42.91435 | -2.08732 | 33991 ft | 474 kts | 125° |
| 2026-05-05 19:30 | 42.87903 | -2.01122 | 33997 ft | 474 kts | 126° |
| 2026-05-05 19:30 | 42.84351 | -1.93539 | 33995 ft | 474 kts | 126° |
| 2026-05-05 19:31 | 42.80806 | -1.86005 | 33997 ft | 474 kts | 126° |
| 2026-05-05 19:31 | 42.77240 | -1.78427 | 33994 ft | 474 kts | 126° |
| 2026-05-05 19:32 | 42.73714 | -1.70890 | 33994 ft | 475 kts | 123° |
| 2026-05-05 19:32 | 42.70764 | -1.62788 | 33993 ft | 477 kts | 118° |
| 2026-05-05 19:33 | 42.67924 | -1.54685 | 33986 ft | 477 kts | 118° |
| 2026-05-05 19:33 | 42.65063 | -1.46525 | 33991 ft | 476 kts | 118° |
| 2026-05-05 19:34 | 42.62205 | -1.38448 | 33991 ft | 476 kts | 119° |
| 2026-05-05 19:35 | 42.57877 | -1.26278 | 33965 ft | 477 kts | 119° |
| 2026-05-05 19:35 | 42.54992 | -1.18165 | 33962 ft | 477 kts | 119° |
| 2026-05-05 19:36 | 42.52116 | -1.10097 | 33957 ft | 477 kts | 120° |
| 2026-05-05 19:36 | 42.49211 | -1.01995 | 33959 ft | 477 kts | 120° |
| 2026-05-05 19:37 | 42.46305 | -0.93903 | 33961 ft | 477 kts | 120° |
| 2026-05-05 19:37 | 42.43418 | -0.85871 | 33947 ft | 477 kts | 120° |
| 2026-05-05 19:38 | 42.40500 | -0.77789 | 33947 ft | 477 kts | 120° |
| 2026-05-05 19:38 | 42.37575 | -0.69716 | 33931 ft | 477 kts | 120° |
| 2026-05-05 19:39 | 42.34663 | -0.61693 | 33936 ft | 477 kts | 120° |
| 2026-05-05 19:39 | 42.31721 | -0.53626 | 33945 ft | 478 kts | 120° |
| 2026-05-05 19:40 | 42.28798 | -0.45612 | 33946 ft | 478 kts | 120° |
| 2026-05-05 19:40 | 42.25854 | -0.37556 | 33945 ft | 478 kts | 120° |
| 2026-05-05 19:41 | 42.22896 | -0.29518 | 33934 ft | 478 kts | 121° |
| 2026-05-05 19:41 | 42.19937 | -0.21479 | 33936 ft | 478 kts | 120° |
| 2026-05-05 19:42 | 42.16976 | -0.13447 | 33915 ft | 478 kts | 121° |
| 2026-05-05 19:42 | 42.14014 | -0.05459 | 33923 ft | 479 kts | 121° |
| 2026-05-05 19:43 | 42.11032 | 0.02561 | 33908 ft | 478 kts | 121° |
| 2026-05-05 19:43 | 42.08554 | 0.09228 | 33926 ft | 478 kts | 121° |
| 2026-05-05 19:44 | 42.05568 | 0.17235 | 33935 ft | 477 kts | 121° |
| 2026-05-05 19:44 | 42.02601 | 0.25152 | 33937 ft | 476 kts | 121° |
| 2026-05-05 19:45 | 41.99612 | 0.33099 | 33932 ft | 476 kts | 121° |
| 2026-05-05 19:45 | 41.96614 | 0.41054 | 33898 ft | 476 kts | 122° |
| 2026-05-05 19:46 | 41.93619 | 0.48989 | 33906 ft | 476 kts | 122° |
| 2026-05-05 19:46 | 41.90617 | 0.56928 | 33911 ft | 476 kts | 122° |
| 2026-05-05 19:47 | 41.87633 | 0.64794 | 33912 ft | 476 kts | 122° |
| 2026-05-05 19:47 | 41.84620 | 0.72714 | 33913 ft | 475 kts | 122° |
| 2026-05-05 19:48 | 41.81606 | 0.80609 | 33905 ft | 475 kts | 123° |
| 2026-05-05 19:48 | 41.78602 | 0.88457 | 33920 ft | 475 kts | 122° |
| 2026-05-05 19:49 | 41.75578 | 0.96347 | 33936 ft | 477 kts | 123° |
| 2026-05-05 19:49 | 41.72528 | 1.04266 | 33997 ft | 476 kts | 123° |
| 2026-05-05 19:50 | 41.69498 | 1.12114 | 33938 ft | 477 kts | 123° |
| 2026-05-05 19:50 | 41.66444 | 1.20009 | 33934 ft | 476 kts | 124° |
| 2026-05-05 19:51 | 41.63395 | 1.27867 | 33932 ft | 475 kts | 124° |
| 2026-05-05 19:51 | 41.60355 | 1.35676 | 33921 ft | 475 kts | 124° |
| 2026-05-05 19:52 | 41.57297 | 1.43516 | 33918 ft | 475 kts | 124° |
| 2026-05-05 19:52 | 41.54228 | 1.51349 | 33889 ft | 475 kts | 125° |
| 2026-05-05 19:53 | 41.51160 | 1.59175 | 33901 ft | 475 kts | 126° |
| 2026-05-05 19:53 | 41.48098 | 1.66959 | 33905 ft | 475 kts | 126° |
| 2026-05-05 19:54 | 41.45020 | 1.74768 | 33904 ft | 475 kts | 126° |
| 2026-05-05 19:54 | 41.41958 | 1.82504 | 33905 ft | 474 kts | 126° |
| 2026-05-05 19:55 | 41.38869 | 1.90292 | 33906 ft | 474 kts | 126° |
| 2026-05-05 19:55 | 41.35794 | 1.98068 | 33888 ft | 473 kts | 127° |
| 2026-05-05 19:56 | 41.32713 | 2.05804 | 33857 ft | 472 kts | 128° |
| 2026-05-05 19:56 | 41.30172 | 2.13985 | 33905 ft | 494 kts | 111° |
| 2026-05-05 19:57 | 41.28711 | 2.22968 | 33903 ft | 497 kts | 110° |
| 2026-05-05 19:57 | 41.27243 | 2.31959 | 33888 ft | 497 kts | 110° |
| 2026-05-05 19:58 | 41.25750 | 2.40921 | 33581 ft | 499 kts | 110° |
| 2026-05-05 19:58 | 41.24993 | 2.45428 | 33196 ft | 499 kts | 110° |
| 2026-05-05 19:58 | 41.24234 | 2.49942 | 32819 ft | 499 kts | 110° |
| 2026-05-05 19:58 | 41.23480 | 2.54448 | 32452 ft | 497 kts | 110° |
| 2026-05-05 19:59 | 41.22733 | 2.58927 | 32080 ft | 495 kts | 110° |
| 2026-05-05 19:59 | 41.21995 | 2.63322 | 31725 ft | 492 kts | 110° |
| 2026-05-05 19:59 | 41.21244 | 2.67747 | 31315 ft | 489 kts | 110° |
| 2026-05-05 19:59 | 41.20500 | 2.72130 | 30966 ft | 483 kts | 110° |
| 2026-05-05 20:00 | 41.19765 | 2.76464 | 30616 ft | 480 kts | 110° |
| 2026-05-05 20:00 | 41.19029 | 2.80791 | 30275 ft | 477 kts | 111° |
| 2026-05-05 20:00 | 41.18297 | 2.85081 | 29932 ft | 474 kts | 111° |
| 2026-05-05 20:00 | 41.17567 | 2.89351 | 29536 ft | 472 kts | 111° |
| 2026-05-05 20:01 | 41.16852 | 2.93538 | 29140 ft | 469 kts | 110° |
| 2026-05-05 20:01 | 41.16131 | 2.97753 | 28756 ft | 466 kts | 110° |
| 2026-05-05 20:01 | 41.15412 | 3.01944 | 28374 ft | 464 kts | 111° |
| 2026-05-05 20:01 | 41.14692 | 3.06109 | 27973 ft | 461 kts | 111° |
| 2026-05-05 20:02 | 41.13972 | 3.10254 | 27599 ft | 458 kts | 111° |
| 2026-05-05 20:02 | 41.13265 | 3.14316 | 27238 ft | 456 kts | 111° |
| 2026-05-05 20:02 | 41.12552 | 3.18409 | 26877 ft | 454 kts | 110° |
| 2026-05-05 20:02 | 41.11842 | 3.22485 | 26520 ft | 451 kts | 110° |
| 2026-05-05 20:03 | 41.11135 | 3.26532 | 26170 ft | 449 kts | 110° |
| 2026-05-05 20:03 | 41.10433 | 3.30560 | 25845 ft | 447 kts | 110° |
| 2026-05-05 20:03 | 41.09732 | 3.34569 | 25525 ft | 445 kts | 110° |
| 2026-05-05 20:03 | 41.09030 | 3.38552 | 25216 ft | 443 kts | 110° |
| 2026-05-05 20:04 | 41.08328 | 3.42516 | 24893 ft | 441 kts | 110° |
| 2026-05-05 20:04 | 41.07612 | 3.46406 | 24553 ft | 437 kts | 114° |
| 2026-05-05 20:04 | 41.06508 | 3.50093 | 24248 ft | 425 kts | 126° |
| 2026-05-05 20:04 | 41.04961 | 3.53355 | 23949 ft | 411 kts | 137° |
| 2026-05-05 20:05 | 41.03071 | 3.56120 | 23646 ft | 398 kts | 147° |
| 2026-05-05 20:05 | 41.00926 | 3.58360 | 23321 ft | 385 kts | 157° |
| 2026-05-05 20:05 | 40.98660 | 3.60203 | 22973 ft | 381 kts | 159° |
| 2026-05-05 20:05 | 40.96424 | 3.62002 | 22623 ft | 379 kts | 159° |
| 2026-05-05 20:06 | 40.94175 | 3.63813 | 22297 ft | 377 kts | 158° |
| 2026-05-05 20:06 | 40.91941 | 3.65616 | 21978 ft | 375 kts | 158° |
| 2026-05-05 20:06 | 40.89716 | 3.67412 | 21668 ft | 373 kts | 158° |
| 2026-05-05 20:06 | 40.87508 | 3.69193 | 21351 ft | 371 kts | 158° |
| 2026-05-05 20:07 | 40.85305 | 3.70967 | 21041 ft | 369 kts | 158° |
| 2026-05-05 20:07 | 40.83112 | 3.72732 | 20717 ft | 368 kts | 157° |
| 2026-05-05 20:07 | 40.80926 | 3.74488 | 20415 ft | 367 kts | 157° |
| 2026-05-05 20:07 | 40.78747 | 3.76237 | 20109 ft | 365 kts | 157° |
| 2026-05-05 20:08 | 40.76604 | 3.77953 | 19824 ft | 363 kts | 157° |
| 2026-05-05 20:08 | 40.74443 | 3.79684 | 19531 ft | 361 kts | 157° |
| 2026-05-05 20:08 | 40.72294 | 3.81405 | 19222 ft | 360 kts | 156° |
| 2026-05-05 20:08 | 40.70155 | 3.83115 | 18934 ft | 359 kts | 156° |
| 2026-05-05 20:09 | 40.68023 | 3.84821 | 18650 ft | 357 kts | 156° |
| 2026-05-05 20:09 | 40.65906 | 3.86515 | 18369 ft | 355 kts | 155° |
| 2026-05-05 20:09 | 40.63822 | 3.88182 | 18070 ft | 353 kts | 155° |
| 2026-05-05 20:09 | 40.61725 | 3.89858 | 17758 ft | 351 kts | 155° |
| 2026-05-05 20:10 | 40.59640 | 3.91520 | 17446 ft | 349 kts | 155° |
| 2026-05-05 20:10 | 40.57559 | 3.93176 | 17119 ft | 347 kts | 155° |
| 2026-05-05 20:10 | 40.55494 | 3.94816 | 16805 ft | 345 kts | 155° |
| 2026-05-05 20:10 | 40.53443 | 3.96444 | 16495 ft | 343 kts | 155° |
| 2026-05-05 20:11 | 40.51402 | 3.98062 | 16192 ft | 341 kts | 156° |
| 2026-05-05 20:11 | 40.49321 | 3.99381 | 15930 ft | 331 kts | 167° |
| 2026-05-05 20:11 | 40.47119 | 4.00205 | 15878 ft | 327 kts | 171° |
| 2026-05-05 20:11 | 40.44902 | 4.00986 | 15959 ft | 335 kts | 168° |
| 2026-05-05 20:12 | 40.42634 | 4.01790 | 15888 ft | 333 kts | 171° |
| 2026-05-05 20:12 | 40.40418 | 4.02586 | 15864 ft | 329 kts | 171° |
| 2026-05-05 20:12 | 40.38201 | 4.03382 | 15474 ft | 330 kts | 171° |
| 2026-05-05 20:12 | 40.35958 | 4.04177 | 14727 ft | 338 kts | 171° |
| 2026-05-05 20:13 | 40.33689 | 4.04980 | 13992 ft | 345 kts | 171° |
| 2026-05-05 20:13 | 40.31351 | 4.05808 | 13231 ft | 350 kts | 170° |
| 2026-05-05 20:13 | 40.29017 | 4.06637 | 12430 ft | 342 kts | 169° |
| 2026-05-05 20:13 | 40.26753 | 4.07445 | 11672 ft | 332 kts | 169° |
| 2026-05-05 20:14 | 40.24556 | 4.08229 | 11027 ft | 321 kts | 169° |
| 2026-05-05 20:14 | 40.22427 | 4.08987 | 10408 ft | 311 kts | 169° |
| 2026-05-05 20:14 | 40.20381 | 4.09713 | 10006 ft | 296 kts | 169° |
| 2026-05-05 20:14 | 40.18428 | 4.10402 | 9548 ft | 285 kts | 169° |
| 2026-05-05 20:15 | 40.16567 | 4.11057 | 9047 ft | 276 kts | 169° |
| 2026-05-05 20:15 | 40.14742 | 4.11699 | 8557 ft | 267 kts | 169° |
| 2026-05-05 20:15 | 40.12970 | 4.12321 | 8075 ft | 260 kts | 169° |
| 2026-05-05 20:15 | 40.11247 | 4.12926 | 7603 ft | 252 kts | 169° |
| 2026-05-05 20:16 | 40.09580 | 4.13579 | 7120 ft | 248 kts | 159° |
| 2026-05-05 20:16 | 40.08268 | 4.14988 | 6672 ft | 252 kts | 126° |
| 2026-05-05 20:16 | 40.07781 | 4.17155 | 6226 ft | 252 kts | 89° |
| 2026-05-05 20:16 | 40.07928 | 4.19419 | 5721 ft | 248 kts | 86° |
| 2026-05-05 20:17 | 40.08017 | 4.21653 | 5245 ft | 244 kts | 90° |
| 2026-05-05 20:17 | 40.07903 | 4.23845 | 4768 ft | 239 kts | 110° |
| 2026-05-05 20:17 | 40.06994 | 4.25536 | 4268 ft | 226 kts | 150° |
| 2026-05-05 20:17 | 40.05549 | 4.26069 | 3837 ft | 210 kts | 187° |
| 2026-05-05 20:18 | 40.04167 | 4.25652 | 3387 ft | 201 kts | 200° |
| 2026-05-05 20:18 | 40.02821 | 4.25293 | 3124 ft | 201 kts | 193° |
| 2026-05-05 20:18 | 40.01448 | 4.25001 | 2865 ft | 198 kts | 193° |
| 2026-05-05 20:18 | 40.00088 | 4.24717 | 2613 ft | 194 kts | 192° |
| 2026-05-05 20:19 | 39.98796 | 4.24451 | 2361 ft | 182 kts | 193° |
| 2026-05-05 20:19 | 39.97595 | 4.24204 | 2107 ft | 166 kts | 193° |
| 2026-05-05 20:19 | 39.96497 | 4.23978 | 1968 ft | 156 kts | 193° |
| 2026-05-05 20:19 | 39.95462 | 4.23764 | 1891 ft | 146 kts | 192° |
| 2026-05-05 20:20 | 39.94500 | 4.23565 | 1752 ft | 138 kts | 193° |
| 2026-05-05 20:20 | 39.93556 | 4.23370 | 1589 ft | 136 kts | 193° |
| 2026-05-05 20:20 | 39.92617 | 4.23176 | 1419 ft | 137 kts | 193° |
| 2026-05-05 20:20 | 39.91669 | 4.22980 | 1236 ft | 138 kts | 193° |
| 2026-05-05 20:21 | 39.90722 | 4.22785 | 1044 ft | 138 kts | 192° |
| 2026-05-05 20:21 | 39.89797 | 4.22595 | 866 ft | 135 kts | 192° |
| 2026-05-05 20:21 | 39.88864 | 4.22403 | 695 ft | 136 kts | 191° |
| 2026-05-05 20:21 | 39.87937 | 4.22212 | 500 ft | 134 kts | 191° |
| 2026-05-05 20:22 | 39.86994 | 4.22014 | 434 ft | 151 kts | 191° |
| 2026-05-05 20:22 | 39.85945 | 4.21778 | 1182 ft | 154 kts | 192° |
| 2026-05-05 20:22 | 39.84877 | 4.21564 | 2083 ft | 163 kts | 192° |
| 2026-05-05 20:22 | 39.83632 | 4.21846 | 2422 ft | 211 kts | 154° |
| 2026-05-05 20:23 | 39.82686 | 4.23356 | 2487 ft | 228 kts | 110° |
| 2026-05-05 20:23 | 39.82733 | 4.25417 | 2508 ft | 233 kts | 65° |
| 2026-05-05 20:23 | 39.83784 | 4.26939 | 2509 ft | 226 kts | 21° |
| 2026-05-05 20:23 | 39.85258 | 4.27174 | 2509 ft | 215 kts | 339° |
| 2026-05-05 20:24 | 39.86414 | 4.26068 | 2508 ft | 206 kts | 295° |
| 2026-05-05 20:24 | 39.86627 | 4.24299 | 2510 ft | 200 kts | 260° |
| 2026-05-05 20:24 | 39.86374 | 4.22500 | 2505 ft | 203 kts | 261° |
| 2026-05-05 20:24 | 39.86443 | 4.20650 | 2508 ft | 206 kts | 275° |
| 2026-05-05 20:25 | 39.86258 | 4.18866 | 2506 ft | 202 kts | 238° |
| 2026-05-05 20:25 | 39.85363 | 4.17424 | 2504 ft | 206 kts | 235° |
| 2026-05-05 20:25 | 39.84945 | 4.15698 | 2502 ft | 205 kts | 276° |
| 2026-05-05 20:25 | 39.85595 | 4.14092 | 2506 ft | 212 kts | 319° |
| 2026-05-05 20:26 | 39.86999 | 4.13492 | 2507 ft | 222 kts | 3° |
| 2026-05-05 20:26 | 39.88513 | 4.14002 | 2508 ft | 226 kts | 14° |
| 2026-05-05 20:26 | 39.90020 | 4.14577 | 2508 ft | 225 kts | 13° |
| 2026-05-05 20:26 | 39.91524 | 4.15100 | 2509 ft | 226 kts | 11° |
| 2026-05-05 20:27 | 39.93051 | 4.15577 | 2507 ft | 225 kts | 10° |
| 2026-05-05 20:27 | 39.94563 | 4.16104 | 2502 ft | 226 kts | 21° |
| 2026-05-05 20:27 | 39.95824 | 4.17340 | 2506 ft | 229 kts | 52° |
| 2026-05-05 20:27 | 39.96467 | 4.19234 | 2507 ft | 232 kts | 84° |
| 2026-05-05 20:28 | 39.96235 | 4.21268 | 2508 ft | 228 kts | 120° |
| 2026-05-05 20:28 | 39.95240 | 4.22769 | 2502 ft | 221 kts | 152° |
| 2026-05-05 20:28 | 39.93834 | 4.23449 | 2506 ft | 214 kts | 180° |
| 2026-05-05 20:28 | 39.92372 | 4.23272 | 2508 ft | 212 kts | 195° |
| 2026-05-05 20:29 | 39.90910 | 4.22890 | 2506 ft | 214 kts | 195° |
| 2026-05-05 20:29 | 39.89463 | 4.22494 | 2508 ft | 212 kts | 196° |
| 2026-05-05 20:29 | 39.88511 | 4.22232 | 2506 ft | 211 kts | 196° |
| 2026-05-05 20:29 | 39.87069 | 4.21837 | 2507 ft | 211 kts | 195° |
| 2026-05-05 20:30 | 39.85288 | 4.20967 | 2504 ft | 204 kts | 224° |
| 2026-05-05 20:30 | 39.84539 | 4.19454 | 2508 ft | 201 kts | 258° |
| 2026-05-05 20:30 | 39.84497 | 4.18250 | 2507 ft | 203 kts | 279° |
| 2026-05-05 20:30 | 39.85061 | 4.16551 | 2508 ft | 209 kts | 305° |
| 2026-05-05 20:31 | 39.86208 | 4.15355 | 2507 ft | 216 kts | 333° |
| 2026-05-05 20:31 | 39.87691 | 4.15019 | 2510 ft | 221 kts | 359° |
| 2026-05-05 20:31 | 39.89231 | 4.15178 | 2508 ft | 222 kts | 4° |
| 2026-05-05 20:31 | 39.90775 | 4.15455 | 2508 ft | 224 kts | 5° |
| 2026-05-05 20:32 | 39.92303 | 4.15762 | 2507 ft | 224 kts | 6° |
| 2026-05-05 20:32 | 39.93836 | 4.16108 | 2508 ft | 224 kts | 7° |
| 2026-05-05 20:32 | 39.95281 | 4.16871 | 2505 ft | 228 kts | 35° |
| 2026-05-05 20:32 | 39.96261 | 4.18478 | 2506 ft | 231 kts | 69° |
| 2026-05-05 20:33 | 39.96405 | 4.20533 | 2505 ft | 229 kts | 106° |
| 2026-05-05 20:33 | 39.95658 | 4.22303 | 2504 ft | 222 kts | 140° |
| 2026-05-05 20:33 | 39.94360 | 4.23306 | 2505 ft | 215 kts | 169° |
| 2026-05-05 20:33 | 39.92919 | 4.23401 | 2507 ft | 209 kts | 194° |
| 2026-05-05 20:34 | 39.91471 | 4.23041 | 2508 ft | 213 kts | 196° |
| 2026-05-05 20:34 | 39.90020 | 4.22648 | 2505 ft | 212 kts | 195° |
| 2026-05-05 20:34 | 39.88579 | 4.22252 | 2509 ft | 210 kts | 196° |
| 2026-05-05 20:34 | 39.87160 | 4.21865 | 2507 ft | 210 kts | 195° |
| 2026-05-05 20:35 | 39.85759 | 4.21358 | 2504 ft | 207 kts | 211° |
| 2026-05-05 20:35 | 39.84745 | 4.20106 | 2505 ft | 201 kts | 244° |
| 2026-05-05 20:35 | 39.84500 | 4.18341 | 2507 ft | 203 kts | 277° |
| 2026-05-05 20:35 | 39.85030 | 4.16633 | 2508 ft | 208 kts | 305° |
| 2026-05-05 20:36 | 39.86167 | 4.15439 | 2508 ft | 215 kts | 333° |
| 2026-05-05 20:36 | 39.87639 | 4.15090 | 2511 ft | 220 kts | 360° |
| 2026-05-05 20:36 | 39.89172 | 4.15258 | 2507 ft | 222 kts | 4° |
| 2026-05-05 20:36 | 39.90695 | 4.15517 | 2507 ft | 224 kts | 5° |
| 2026-05-05 20:37 | 39.92237 | 4.15809 | 2507 ft | 223 kts | 6° |
| 2026-05-05 20:37 | 39.93775 | 4.16146 | 2508 ft | 223 kts | 7° |
| 2026-05-05 20:37 | 39.95220 | 4.16878 | 2505 ft | 227 kts | 34° |
| 2026-05-05 20:37 | 39.96257 | 4.18424 | 2507 ft | 230 kts | 64° |
| 2026-05-05 20:38 | 39.96600 | 4.20451 | 2419 ft | 232 kts | 98° |
| 2026-05-05 20:38 | 39.96011 | 4.22350 | 2010 ft | 226 kts | 137° |
| 2026-05-05 20:38 | 39.94746 | 4.23348 | 1779 ft | 209 kts | 171° |
| 2026-05-05 20:38 | 39.93383 | 4.23338 | 1585 ft | 188 kts | 192° |
| 2026-05-05 20:39 | 39.92126 | 4.23076 | 1298 ft | 175 kts | 193° |
| 2026-05-05 20:39 | 39.90987 | 4.22843 | 1081 ft | 156 kts | 193° |
| 2026-05-05 20:39 | 39.89974 | 4.22634 | 907 ft | 143 kts | 192° |
| 2026-05-05 20:39 | 39.89031 | 4.22439 | 705 ft | 135 kts | 192° |
| 2026-05-05 20:40 | 39.88108 | 4.22248 | 542 ft | 132 kts | 190° |
| 2026-05-05 20:40 | 39.87210 | 4.22063 | 360 ft | 129 kts | 191° |
| 2026-05-05 20:40 | 39.86388 | 4.21892 | 304 ft | 92 kts | 189° |
| 2026-05-05 20:40 | 39.86057 | 4.21825 | 302 ft | 7 kts | 189° |
| 2026-05-05 20:41 | 39.85975 | 4.21808 | 302 ft | 17 kts | 188° |
| 2026-05-05 20:41 | 39.85852 | 4.21783 | 300 ft | 19 kts | 189° |
| 2026-05-05 20:41 | 39.85714 | 4.21758 | 297 ft | 21 kts | 187° |
| 2026-05-05 20:41 | 39.85570 | 4.21778 | 291 ft | 21 kts | 168° |
| 2026-05-05 20:42 | 39.85437 | 4.21834 | 283 ft | 16 kts | 158° |
| 2026-05-05 20:42 | 39.85417 | 4.21916 | 287 ft | 9 kts | 42° |
| 2026-05-05 20:42 | 39.85465 | 4.21938 | 284 ft | 6 kts | 11° |
| 2026-05-05 20:42 | 39.85531 | 4.21953 | 288 ft | 16 kts | 9° |
| 2026-05-05 20:43 | 39.85668 | 4.21981 | 293 ft | 19 kts | 9° |
| 2026-05-05 20:43 | 39.85786 | 4.22005 | 295 ft | 15 kts | 9° |
| 2026-05-05 20:43 | 39.85880 | 4.22025 | 296 ft | 12 kts | 9° |
| 2026-05-05 20:43 | 39.85958 | 4.22041 | 296 ft | 11 kts | 9° |
| 2026-05-05 20:44 | 39.86030 | 4.22056 | 295 ft | 11 kts | 9° |
| 2026-05-05 20:44 | 39.86103 | 4.22070 | 295 ft | 11 kts | 9° |
| 2026-05-05 20:44 | 39.86173 | 4.22085 | 298 ft | 10 kts | 9° |
| 2026-05-05 20:44 | 39.86238 | 4.22098 | 294 ft | 9 kts | 9° |
| 2026-05-05 20:45 | 39.86352 | 4.22121 | 294 ft | 7 kts | 9° |
| 2026-05-05 20:45 | 39.86400 | 4.22131 | 294 ft | 6 kts | 9° |
| 2026-05-05 20:45 | 39.86441 | 4.22139 | 297 ft | 5 kts | 9° |
| 2026-05-05 20:46 | 39.86475 | 4.22146 | 295 ft | 5 kts | 9° |
| 2026-05-05 20:46 | 39.86503 | 4.22152 | 294 ft | 4 kts | 9° |
| 2026-05-05 20:46 | 39.86529 | 4.22167 | 296 ft | 8 kts | 40° |
| 2026-05-05 20:46 | 39.86538 | 4.22261 | 294 ft | 12 kts | 97° |
| 2026-05-05 20:47 | 39.86538 | 4.22351 | 290 ft | 7 kts | 96° |
| 2026-05-05 20:47 | 39.86532 | 4.22409 | 286 ft | 2 kts | 99° |
| 2026-05-05 20:47 | 39.86530 | 4.22423 | 286 ft | 0 kts | 99° |